createdAt,value
2017-06-24T00:01:31.808Z,101771.97
2017-06-24T00:03:58.053Z,101766.69
2017-06-24T00:06:24.312Z,101766.38
2017-06-24T00:08:50.742Z,101764.11
2017-06-24T00:11:16.975Z,101770.62
2017-06-24T00:13:43.247Z,101759.09
2017-06-24T00:17:36.195Z,101760.25
2017-06-24T00:20:02.522Z,101762.37
2017-06-24T00:22:28.768Z,101765.87
2017-06-24T00:24:55.165Z,101761.52
2017-06-24T00:27:21.417Z,101765.55
2017-06-24T00:29:47.707Z,101768.20
2017-06-24T00:32:14.096Z,101765.70
2017-06-24T00:34:40.323Z,101753.42
2017-06-24T00:37:06.569Z,101755.41
2017-06-24T00:39:33.039Z,101757.34
2017-06-24T00:41:59.269Z,101767.41
2017-06-24T00:44:25.535Z,101764.25
2017-06-24T00:46:51.948Z,101758.87
2017-06-24T00:49:18.187Z,101758.05
2017-06-24T00:51:44.427Z,101758.80
2017-06-24T00:54:10.821Z,101758.94
2017-06-24T00:56:37.088Z,101759.44
2017-06-24T00:59:03.361Z,101755.78
2017-06-24T01:01:29.799Z,101757.89
2017-06-24T01:03:57.356Z,101748.06
2017-06-24T01:06:23.651Z,101747.72
2017-06-24T01:08:50.036Z,101747.95
2017-06-24T01:11:16.285Z,101749.95
2017-06-24T01:13:42.540Z,101747.36
2017-06-24T01:17:35.846Z,101747.95
2017-06-24T01:20:02.092Z,101749.11
2017-06-24T01:22:28.328Z,101740.97
2017-06-24T01:24:54.718Z,101744.94
2017-06-24T01:27:20.956Z,101738.39
2017-06-24T01:29:47.196Z,101746.67
2017-06-24T01:32:13.611Z,101752.13
2017-06-24T01:34:39.883Z,101752.31
2017-06-24T01:37:06.902Z,101751.44
2017-06-24T01:39:33.296Z,101748.92
2017-06-24T01:41:59.552Z,101745.81
2017-06-24T01:44:25.826Z,101739.44
2017-06-24T01:46:52.366Z,101740.94
2017-06-24T01:49:18.640Z,101745.77
2017-06-24T01:51:44.919Z,101731.52
2017-06-24T01:54:11.356Z,101734.45
2017-06-24T01:56:37.595Z,101734.36
2017-06-24T01:59:03.860Z,101737.41
2017-06-24T02:01:30.234Z,101730.69
2017-06-24T02:03:57.800Z,101737.02
2017-06-24T02:06:24.063Z,101732.16
2017-06-24T02:08:50.509Z,101735.97
2017-06-24T02:11:16.790Z,101732.49
2017-06-24T02:13:43.076Z,101728.14
2017-06-24T02:17:36.115Z,101709.73
2017-06-24T02:20:02.463Z,101707.41
2017-06-24T02:22:28.734Z,101710.02
2017-06-24T02:24:55.122Z,101711.13
2017-06-24T02:27:21.357Z,101713.13
2017-06-24T02:29:47.591Z,101706.51
2017-06-24T02:32:14.050Z,101703.37
2017-06-24T02:34:40.305Z,101700.08
2017-06-24T02:37:06.539Z,101700.77
2017-06-24T02:39:32.943Z,101702.08
2017-06-24T02:41:59.183Z,101690.45
2017-06-24T02:44:25.431Z,101697.05
2017-06-24T02:46:51.839Z,101696.38
2017-06-24T02:49:18.112Z,101690.81
2017-06-24T02:51:44.373Z,101695.72
2017-06-24T02:54:10.769Z,101691.74
2017-06-24T02:56:36.992Z,101690.05
2017-06-24T02:59:03.278Z,101685.95
2017-06-24T03:01:29.761Z,101679.77
2017-06-24T03:03:56.009Z,101676.97
2017-06-24T03:06:23.730Z,101672.80
2017-06-24T03:08:50.116Z,101668.80
2017-06-24T03:11:16.347Z,101668.95
2017-06-24T03:13:42.597Z,101661.51
2017-06-24T03:17:35.774Z,101657.17
2017-06-24T03:20:02.046Z,101654.36
2017-06-24T03:22:28.296Z,101656.51
2017-06-24T03:24:54.687Z,101655.73
2017-06-24T03:27:20.942Z,101651.53
2017-06-24T03:29:47.183Z,101654.88
2017-06-24T03:32:13.555Z,101652.08
2017-06-24T03:34:39.839Z,101649.41
2017-06-24T03:37:06.079Z,101644.88
2017-06-24T03:39:32.463Z,101640.40
2017-06-24T03:41:58.739Z,101649.05
2017-06-24T03:44:24.999Z,101648.09
2017-06-24T03:46:51.387Z,101649.26
2017-06-24T03:49:17.613Z,101656.77
2017-06-24T03:51:43.859Z,101648.44
2017-06-24T03:54:10.254Z,101652.18
2017-06-24T03:56:36.515Z,101656.93
2017-06-24T03:59:06.103Z,101655.45
2017-06-24T04:01:32.486Z,101640.88
2017-06-24T04:03:58.714Z,101648.72
2017-06-24T04:06:25.654Z,101633.63
2017-06-24T04:08:52.956Z,101636.06
2017-06-24T04:11:19.189Z,101637.66
2017-06-24T04:13:45.418Z,101640.75
2017-06-24T04:17:35.919Z,101637.94
2017-06-24T04:20:02.209Z,101634.47
2017-06-24T04:22:28.451Z,101643.23
2017-06-24T04:24:54.818Z,101634.00
2017-06-24T04:27:21.092Z,101633.68
2017-06-24T04:29:47.341Z,101636.66
2017-06-24T04:32:13.723Z,101625.80
2017-06-24T04:34:39.967Z,101638.30
2017-06-24T04:37:06.222Z,101634.66
2017-06-24T04:39:33.560Z,101638.47
2017-06-24T04:41:59.831Z,101628.59
2017-06-24T04:44:26.098Z,101638.06
2017-06-24T04:46:52.475Z,101636.59
2017-06-24T04:49:18.711Z,101630.11
2017-06-24T04:51:45.029Z,101631.45
2017-06-24T04:54:11.407Z,101631.00
2017-06-24T04:56:37.671Z,101627.52
2017-06-24T04:59:03.957Z,101625.44
2017-06-24T05:01:30.368Z,101612.05
2017-06-24T05:03:56.613Z,101625.64
2017-06-24T05:06:22.879Z,101617.48
2017-06-24T05:08:50.495Z,101625.16
2017-06-24T05:11:16.758Z,101622.45
2017-06-24T05:13:43.043Z,101617.55
2017-06-24T05:17:36.405Z,101618.48
2017-06-24T05:20:02.676Z,101616.51
2017-06-24T05:22:28.958Z,101612.95
2017-06-24T05:24:55.374Z,101614.95
2017-06-24T05:27:21.623Z,101615.56
2017-06-24T05:29:47.901Z,101616.88
2017-06-24T05:32:14.288Z,101615.39
2017-06-24T05:34:40.548Z,101613.45
2017-06-24T05:37:06.783Z,101614.30
2017-06-24T05:39:33.160Z,101615.23
2017-06-24T05:41:59.419Z,101621.78
2017-06-24T05:44:25.711Z,101610.65
2017-06-24T05:49:48.653Z,101610.99
2017-06-24T05:52:14.914Z,101615.01
2017-06-24T05:54:41.177Z,101621.53
2017-06-24T05:57:07.592Z,101615.78
2017-06-24T05:59:33.854Z,101611.73
2017-06-24T06:02:00.169Z,101611.02
2017-06-24T06:04:26.584Z,101607.42
2017-06-24T06:06:52.837Z,101601.36
2017-06-24T06:09:20.410Z,101610.84
2017-06-24T06:11:46.820Z,101605.49
2017-06-24T06:14:13.072Z,101609.81
2017-06-24T06:17:35.591Z,101613.19
2017-06-24T06:20:01.904Z,101612.47
2017-06-24T06:22:28.159Z,101610.70
2017-06-24T06:24:54.563Z,101621.34
2017-06-24T06:27:20.810Z,101613.00
2017-06-24T06:29:49.611Z,101616.67
2017-06-24T06:32:22.359Z,101611.45
2017-06-24T06:34:54.697Z,101619.38
2017-06-24T06:37:30.665Z,101624.56
2017-06-24T06:39:56.900Z,101621.06
2017-06-24T06:42:23.176Z,101622.67
2017-06-24T06:44:51.074Z,101626.01
2017-06-24T06:47:23.446Z,101632.95
2017-06-24T06:49:55.924Z,101628.02
2017-06-24T06:52:28.465Z,101631.85
2017-06-24T06:55:01.573Z,101635.23
2017-06-24T06:57:33.952Z,101636.53
2017-06-24T07:00:06.350Z,101636.45
2017-06-24T07:02:38.706Z,101639.79
2017-06-24T07:05:11.060Z,101634.75
2017-06-24T07:07:43.461Z,101636.26
2017-06-24T07:10:15.843Z,101638.80
2017-06-24T07:12:48.151Z,101632.88
2017-06-24T07:15:20.513Z,101637.50
2017-06-24T07:17:53.714Z,101638.51
2017-06-24T07:20:26.171Z,101641.42
2017-06-24T07:22:58.547Z,101646.42
2017-06-24T07:25:30.847Z,101642.86
2017-06-24T07:28:03.200Z,101649.31
2017-06-24T07:30:35.880Z,101644.91
2017-06-24T07:33:08.110Z,101644.61
2017-06-24T07:35:40.482Z,101656.05
2017-06-24T07:38:12.742Z,101658.14
2017-06-24T07:40:45.175Z,101654.09
2017-06-24T07:43:17.503Z,101658.36
2017-06-24T07:45:49.964Z,101651.13
2017-06-24T07:48:22.274Z,101658.69
2017-06-24T07:50:54.723Z,101651.50
2017-06-24T07:53:27.117Z,101655.32
2017-06-24T07:55:59.562Z,101654.55
2017-06-24T07:58:32.719Z,101665.80
2017-06-24T08:01:05.056Z,101659.50
2017-06-24T08:03:37.338Z,101653.06
2017-06-24T08:06:09.647Z,101649.47
2017-06-24T08:08:41.976Z,101654.29
2017-06-24T08:11:14.295Z,101651.69
2017-06-24T08:13:46.597Z,101655.31
2017-06-24T08:16:18.920Z,101664.20
2017-06-24T08:18:51.275Z,101659.30
2017-06-24T08:21:23.706Z,101661.44
2017-06-24T08:23:56.018Z,101655.26
2017-06-24T08:26:28.343Z,101661.91
2017-06-24T08:29:00.601Z,101658.00
2017-06-24T08:31:33.023Z,101662.88
2017-06-24T08:34:05.280Z,101664.37
2017-06-24T08:36:37.588Z,101662.72
2017-06-24T08:39:10.104Z,101663.26
2017-06-24T08:41:42.438Z,101657.20
2017-06-24T08:44:14.939Z,101657.03
2017-06-24T08:46:47.261Z,101659.58
2017-06-24T08:49:19.672Z,101655.16
2017-06-24T08:51:52.862Z,101661.88
2017-06-24T08:54:25.367Z,101658.58
2017-06-24T08:56:58.555Z,101665.48
2017-06-24T08:59:30.912Z,101655.53
2017-06-24T09:02:03.287Z,101666.73
2017-06-24T09:04:35.576Z,101661.66
2017-06-24T09:07:07.959Z,101660.07
2017-06-24T09:09:40.223Z,101655.88
2017-06-24T09:12:12.685Z,101661.50
2017-06-24T09:14:44.935Z,101658.91
2017-06-24T09:17:17.341Z,101660.61
2017-06-24T09:19:49.920Z,101658.70
2017-06-24T09:22:22.226Z,101662.98
2017-06-24T09:24:54.686Z,101663.45
2017-06-24T09:27:27.219Z,101666.45
2017-06-24T10:07:12.092Z,101667.13
2017-06-24T10:18:57.035Z,101665.78
2017-06-24T10:21:29.318Z,101667.63
2017-06-24T10:24:01.924Z,101674.08
2017-06-24T10:26:34.367Z,101673.70
2017-06-24T10:29:06.764Z,101670.23
2017-06-24T10:31:39.302Z,101663.13
2017-06-24T10:34:11.933Z,101668.96
2017-06-24T10:36:45.080Z,101672.14
2017-06-24T10:39:17.649Z,101664.89
2017-06-24T10:41:50.303Z,101669.60
2017-06-24T10:44:22.600Z,101672.59
2017-06-24T10:46:55.779Z,101672.67
2017-06-24T10:49:28.267Z,101661.94
2017-06-24T10:52:00.511Z,101664.23
2017-06-24T10:54:33.000Z,101671.72
2017-06-24T10:57:05.359Z,101668.22
2017-06-24T10:59:37.751Z,101660.02
2017-06-24T11:02:10.109Z,101670.13
2017-06-24T11:04:42.465Z,101666.31
2017-06-24T11:07:14.836Z,101670.50
2017-06-24T11:09:47.219Z,101669.42
2017-06-24T11:12:19.571Z,101676.86
2017-06-24T11:14:52.201Z,101668.61
2017-06-24T11:17:25.238Z,101660.14
2017-06-24T11:19:57.519Z,101664.03
2017-06-24T11:25:09.371Z,101662.75
2017-06-24T11:27:41.711Z,101654.65
2017-06-24T11:30:14.854Z,101664.97
2017-06-24T11:32:47.220Z,101664.84
2017-06-24T11:35:13.469Z,101661.42
2017-06-24T11:37:39.703Z,101663.08
2017-06-24T11:40:06.283Z,101667.06
2017-06-24T11:42:32.584Z,101668.59
2017-06-24T11:44:58.824Z,101662.64
2017-06-24T11:47:25.248Z,101667.37
2017-06-24T11:49:51.488Z,101662.70
2017-06-24T11:52:17.766Z,101659.79
2017-06-24T11:54:44.003Z,101665.59
2017-06-24T11:57:10.230Z,101669.03
2017-06-24T11:59:36.479Z,101665.30
2017-06-24T12:02:02.785Z,101665.61
2017-06-24T12:04:29.067Z,101660.10
2017-06-24T12:06:55.299Z,101667.66
2017-06-24T12:09:21.628Z,101672.69
2017-06-24T12:11:47.864Z,101671.04
2017-06-24T12:14:14.454Z,101671.88
2017-06-24T12:18:11.107Z,101665.83
2017-06-24T12:20:37.367Z,101667.42
2017-06-24T12:23:03.636Z,101669.81
2017-06-24T12:25:29.884Z,101671.05
2017-06-24T12:27:56.159Z,101671.20
2017-06-24T12:30:22.410Z,101664.62
2017-06-24T12:32:48.664Z,101665.93
2017-06-24T12:35:14.899Z,101664.98
2017-06-24T12:37:41.196Z,101662.33
2017-06-24T12:40:07.465Z,101684.44
2017-06-24T12:42:33.707Z,101677.16
2017-06-24T12:44:59.965Z,101674.45
2017-06-24T12:47:26.206Z,101678.72
2017-06-24T12:49:52.487Z,101670.28
2017-06-24T12:52:18.777Z,101676.19
2017-06-24T12:54:45.036Z,101671.45
2017-06-24T12:57:11.288Z,101675.81
2017-06-24T12:59:37.595Z,101672.56
2017-06-24T13:02:03.909Z,101683.97
2017-06-24T13:04:30.166Z,101671.73
2017-06-24T13:06:57.302Z,101673.19
2017-06-24T13:09:23.835Z,101669.58
2017-06-24T13:11:50.114Z,101668.02
2017-06-24T13:14:16.622Z,101663.22
2017-06-24T13:17:35.227Z,101670.47
2017-06-24T13:20:01.642Z,101667.87
2017-06-24T13:22:27.946Z,101662.98
2017-06-24T13:24:54.227Z,101660.72
2017-06-24T13:27:20.595Z,101650.98
2017-06-24T13:29:46.892Z,101650.06
2017-06-24T13:32:13.448Z,101650.30
2017-06-24T13:34:39.716Z,101648.81
2017-06-24T13:37:05.982Z,101649.63
2017-06-24T13:39:32.242Z,101653.41
2017-06-24T13:54:04.893Z,101652.31
2017-06-24T13:56:31.300Z,101652.05
2017-06-24T13:58:57.615Z,101649.64
2017-06-24T14:01:23.938Z,101648.57
2017-06-24T14:03:50.172Z,101649.39
2017-06-24T14:06:16.436Z,101647.64
2017-06-24T14:08:42.755Z,101646.94
2017-06-24T14:11:09.060Z,101649.94
2017-06-24T14:13:35.315Z,101648.54
2017-06-24T14:17:35.864Z,101641.50
2017-06-24T14:20:02.890Z,101638.62
2017-06-24T14:22:29.291Z,101638.97
2017-06-24T14:24:55.524Z,101646.07
2017-06-24T14:27:21.779Z,101641.00
2017-06-24T14:29:48.042Z,101647.14
2017-06-24T14:32:14.295Z,101648.98
2017-06-24T14:34:40.546Z,101649.56
2017-06-24T14:37:06.820Z,101643.78
2017-06-24T14:39:33.111Z,101644.34
2017-06-24T14:41:59.362Z,101662.92
2017-06-24T14:44:25.631Z,101657.06
2017-06-24T14:46:51.895Z,101654.13
2017-06-24T14:49:18.150Z,101651.77
2017-06-24T14:51:44.383Z,101652.91
2017-06-24T14:54:10.674Z,101644.45
2017-06-24T14:56:36.975Z,101642.78
2017-06-24T14:59:03.247Z,101637.37
2017-06-24T15:01:29.530Z,101631.13
2017-06-24T15:03:55.842Z,101630.36
2017-06-24T15:06:22.118Z,101626.05
2017-06-24T15:08:48.435Z,101628.94
2017-06-24T15:11:14.729Z,101628.00
2017-06-24T15:13:41.015Z,101623.65
2017-06-24T15:17:35.558Z,101615.59
2017-06-24T15:20:01.823Z,101616.23
2017-06-24T15:22:28.075Z,101619.42
2017-06-24T15:24:54.372Z,101613.31
2017-06-24T15:27:20.925Z,101608.22
2017-06-24T15:29:47.199Z,101609.16
2017-06-24T15:32:13.461Z,101609.02
2017-06-24T15:34:39.787Z,101609.02
2017-06-24T15:37:06.128Z,101622.54
2017-06-24T15:39:32.397Z,101614.16
2017-06-24T15:41:58.681Z,101612.69
2017-06-24T15:44:24.982Z,101603.43
2017-06-24T15:46:51.238Z,101598.61
2017-06-24T15:49:17.524Z,101609.31
2017-06-24T15:51:43.797Z,101614.30
2017-06-24T15:54:10.180Z,101604.21
2017-06-24T15:56:36.447Z,101609.98
2017-06-24T15:59:02.705Z,101608.44
2017-06-24T16:01:28.997Z,101600.19
2017-06-24T16:03:55.287Z,101595.48
2017-06-24T16:06:21.570Z,101597.13
2017-06-24T16:08:47.816Z,101591.61
2017-06-24T16:11:14.145Z,101592.27
2017-06-24T16:13:40.388Z,101586.37
2017-06-24T16:17:35.251Z,101579.35
2017-06-24T16:20:01.521Z,101572.40
2017-06-24T16:22:27.827Z,101567.42
2017-06-24T16:24:54.132Z,101560.30
2017-06-24T16:27:20.429Z,101562.02
2017-06-24T16:29:46.742Z,101569.33
2017-06-24T16:32:13.140Z,101561.79
2017-06-24T16:34:39.763Z,101561.37
2017-06-24T16:37:06.056Z,101552.31
2017-06-24T16:39:33.080Z,101553.84
2017-06-24T16:41:59.369Z,101557.42
2017-06-24T16:44:25.671Z,101549.13
2017-06-24T16:46:51.936Z,101543.45
2017-06-24T16:49:18.244Z,101546.38
2017-06-24T16:51:44.558Z,101540.60
2017-06-24T16:54:10.828Z,101538.81
2017-06-24T16:56:37.108Z,101541.38
2017-06-24T16:59:03.401Z,101541.40
2017-06-24T17:01:30.004Z,101542.45
2017-06-24T17:03:56.374Z,101541.13
2017-06-24T17:06:22.709Z,101546.55
2017-06-24T17:08:49.051Z,101548.42
2017-06-24T17:11:15.385Z,101544.89
2017-06-24T17:13:41.877Z,101548.69
2017-06-24T17:17:35.924Z,101545.98
2017-06-24T17:20:02.678Z,101547.57
2017-06-24T17:22:28.979Z,101542.02
2017-06-24T17:24:55.245Z,101530.33
2017-06-24T17:27:21.548Z,101537.22
2017-06-24T17:29:47.885Z,101535.26
2017-06-24T17:32:14.218Z,101538.77
2017-06-24T17:34:40.522Z,101543.67
2017-06-24T17:37:06.816Z,101543.69
2017-06-24T17:39:34.087Z,101542.94
2017-06-24T17:42:00.377Z,101534.38
2017-06-24T17:44:26.692Z,101531.31
2017-06-24T17:46:53.003Z,101529.42
2017-06-24T17:49:19.292Z,101528.34
2017-06-24T17:51:45.601Z,101518.27
2017-06-24T17:54:11.876Z,101514.94
2017-06-24T17:56:38.988Z,101524.98
2017-06-24T17:59:05.351Z,101522.81
2017-06-24T18:01:32.429Z,101516.11
2017-06-24T18:03:58.813Z,101514.58
2017-06-24T18:06:25.142Z,101512.13
2017-06-24T18:08:51.526Z,101514.09
2017-06-24T18:11:17.844Z,101513.45
2017-06-24T18:13:44.157Z,101518.78
2017-06-24T18:17:36.529Z,101506.02
2017-06-24T18:20:02.883Z,101513.58
2017-06-24T18:22:29.261Z,101498.13
2017-06-24T18:24:55.610Z,101497.03
2017-06-24T18:27:21.969Z,101485.83
2017-06-24T18:29:48.394Z,101486.23
2017-06-24T18:32:14.769Z,101486.73
2017-06-24T18:34:41.320Z,101484.34
2017-06-24T18:37:07.711Z,101487.91
2017-06-24T18:39:34.111Z,101485.16
2017-06-24T18:42:00.536Z,101489.98
2017-06-24T18:44:26.888Z,101485.83
2017-06-24T18:46:53.191Z,101485.41
2017-06-24T18:49:19.533Z,101488.09
2017-06-24T18:51:45.812Z,101485.89
2017-06-24T18:54:12.111Z,101481.44
2017-06-24T18:56:38.447Z,101485.63
2017-06-24T18:59:04.764Z,101485.72
2017-06-24T19:01:31.076Z,101478.64
2017-06-24T19:03:57.411Z,101474.09
2017-06-24T19:06:23.713Z,101477.02
2017-06-24T19:08:50.028Z,101470.59
2017-06-24T19:11:16.308Z,101472.58
2017-06-24T19:13:42.613Z,101472.44
2017-06-24T19:17:35.300Z,101472.39
2017-06-24T19:20:01.662Z,101471.64
2017-06-24T19:22:27.994Z,101480.48
2017-06-24T19:24:54.287Z,101475.77
2017-06-24T19:27:20.561Z,101473.72
2017-06-24T19:29:46.852Z,101482.36
2017-06-24T19:32:13.144Z,101479.78
2017-06-24T19:34:39.415Z,101474.55
2017-06-24T19:37:05.700Z,101469.03
2017-06-24T19:39:32.086Z,101473.67
2017-06-24T19:41:58.376Z,101467.05
2017-06-24T19:44:24.671Z,101465.14
2017-06-24T19:46:50.980Z,101468.30
2017-06-24T19:49:17.275Z,101459.19
2017-06-24T19:51:43.572Z,101458.13
2017-06-24T19:54:09.902Z,101454.72
2017-06-24T19:56:36.729Z,101455.80
2017-06-24T19:59:03.727Z,101454.95
2017-06-24T20:01:30.052Z,101460.41
2017-06-24T20:03:56.448Z,101459.38
2017-06-24T20:06:22.860Z,101458.91
2017-06-24T20:08:49.183Z,101466.34
2017-06-24T20:11:15.633Z,101468.42
2017-06-24T20:13:42.080Z,101467.48
2017-06-24T20:17:36.002Z,101463.89
2017-06-24T20:20:02.858Z,101458.22
2017-06-24T20:22:29.258Z,101452.52
2017-06-24T20:24:55.564Z,101456.45
2017-06-24T20:27:22.007Z,101446.08
2017-06-24T20:29:49.061Z,101445.70
2017-06-24T20:32:15.427Z,101450.56
2017-06-24T20:34:41.728Z,101459.69
2017-06-24T20:37:08.032Z,101452.20
2017-06-24T20:39:34.393Z,101449.29
2017-06-24T20:42:00.705Z,101450.36
2017-06-24T20:44:27.048Z,101452.64
2017-06-24T20:46:53.349Z,101451.56
2017-06-24T20:49:19.643Z,101448.81
2017-06-24T20:51:45.923Z,101449.55
2017-06-24T20:54:12.383Z,101443.30
2017-06-24T20:56:38.712Z,101446.58
2017-06-24T20:59:05.242Z,101441.53
2017-06-24T21:01:31.566Z,101444.19
2017-06-24T21:03:57.881Z,101443.69
2017-06-24T21:06:24.200Z,101444.50
2017-06-24T21:08:51.272Z,101447.53
2017-06-24T21:11:17.530Z,101441.77
2017-06-24T21:13:43.820Z,101441.20
2017-06-24T21:17:35.602Z,101447.88
2017-06-24T21:20:01.880Z,101446.95
2017-06-24T21:22:28.127Z,101450.34
2017-06-24T21:24:54.470Z,101450.69
2017-06-24T21:27:20.731Z,101449.16
2017-06-24T21:29:47.010Z,101449.73
2017-06-24T21:32:13.299Z,101450.01
2017-06-24T21:34:40.601Z,101452.91
2017-06-24T21:37:07.615Z,101457.82
2017-06-24T21:39:34.411Z,101454.31
2017-06-24T21:42:00.808Z,101459.08
2017-06-24T21:44:27.716Z,101456.17
2017-06-24T21:46:54.401Z,101454.03
2017-06-24T21:49:21.464Z,101449.73
2017-06-24T21:51:47.923Z,101447.94
2017-06-24T21:54:14.833Z,101450.10
2017-06-24T21:56:41.902Z,101443.11
2017-06-24T21:59:08.268Z,101447.37
2017-06-24T22:01:34.534Z,101442.77
2017-06-24T22:04:00.807Z,101444.72
2017-06-24T22:06:27.725Z,101435.52
2017-06-24T22:08:54.971Z,101441.39
2017-06-24T22:11:21.659Z,101437.67
2017-06-24T22:13:48.081Z,101431.18
2017-06-24T22:17:36.132Z,101428.83
2017-06-24T22:20:02.600Z,101427.52
2017-06-24T22:22:29.665Z,101425.29
2017-06-24T22:24:56.637Z,101420.42
2017-06-24T22:27:23.367Z,101420.12
2017-06-24T22:29:50.763Z,101429.63
2017-06-24T22:32:18.080Z,101422.69
2017-06-24T22:47:44.563Z,101407.38
2017-06-24T22:50:10.833Z,101405.81
2017-06-24T22:52:37.094Z,101407.25
2017-06-24T22:55:03.372Z,101401.14
2017-06-24T22:57:29.649Z,101392.53
2017-06-24T22:59:55.911Z,101384.56
2017-06-24T23:02:22.164Z,101384.61
2017-06-24T23:04:48.554Z,101382.74
2017-06-24T23:07:14.815Z,101375.77
2017-06-24T23:09:41.134Z,101372.56
2017-06-24T23:12:07.446Z,101368.28
2017-06-24T23:14:34.665Z,101371.69
2017-06-24T23:17:36.914Z,101371.67
2017-06-24T23:20:03.319Z,101372.80
2017-06-24T23:22:29.623Z,101362.96
2017-06-24T23:24:55.972Z,101370.69
2017-06-24T23:27:22.506Z,101372.70
2017-06-24T23:29:48.762Z,101376.61
2017-06-24T23:32:15.047Z,101367.20
2017-06-24T23:34:41.298Z,101366.94
2017-06-24T23:37:07.538Z,101368.33
2017-06-24T23:39:33.819Z,101359.50
2017-06-24T23:42:00.077Z,101361.47
2017-06-24T23:44:26.384Z,101363.52
2017-06-24T23:46:52.650Z,101357.66
2017-06-24T23:49:18.925Z,101359.04
2017-06-24T23:51:45.185Z,101356.53
2017-06-24T23:54:11.466Z,101351.84
2017-06-24T23:56:37.727Z,101346.60
2017-06-24T23:59:04.016Z,101345.28
